createdAt,value
2023-05-05T00:00:26.745Z,2597.00
2023-05-05T00:01:26.653Z,2604.00
2023-05-05T00:02:26.696Z,2611.00
2023-05-05T00:03:26.543Z,2601.00
2023-05-05T00:04:26.388Z,2587.00
2023-05-05T00:05:26.293Z,2600.00
2023-05-05T00:06:26.187Z,2586.00
2023-05-05T00:07:26.106Z,2595.00
2023-05-05T00:08:26.038Z,2591.00
2023-05-05T00:09:26.014Z,2592.00
2023-05-05T00:10:25.922Z,2594.00
2023-05-05T00:11:25.832Z,2595.00
2023-05-05T00:12:25.737Z,2587.00
2023-05-05T00:13:25.646Z,2583.00
2023-05-05T00:14:25.550Z,2574.00
2023-05-05T00:15:25.461Z,2577.00
2023-05-05T00:16:25.389Z,2574.00
2023-05-05T00:17:25.285Z,2574.00
2023-05-05T00:18:25.187Z,2569.00
2023-05-05T00:19:25.087Z,2572.00
2023-05-05T00:20:25.096Z,2554.00
2023-05-05T00:21:25.105Z,2566.00
2023-05-05T00:22:25.016Z,2558.00
2023-05-05T00:23:24.914Z,2563.00
2023-05-05T00:24:24.831Z,2559.00
2023-05-05T00:25:24.734Z,2559.00
2023-05-05T00:26:24.650Z,2550.00
2023-05-05T00:27:24.650Z,2552.00
2023-05-05T00:28:24.562Z,2551.00
2023-05-05T00:29:24.541Z,2550.00
2023-05-05T00:30:24.388Z,2558.00
2023-05-05T00:31:24.334Z,2550.00
2023-05-05T00:32:24.227Z,2534.00
2023-05-05T00:33:24.117Z,2548.00
2023-05-05T00:34:24.027Z,2556.00
2023-05-05T00:35:23.955Z,2541.00
2023-05-05T00:36:23.854Z,2534.00
2023-05-05T00:37:23.750Z,2542.00
2023-05-05T00:38:23.733Z,2537.00
2023-05-05T00:39:23.643Z,2533.00
2023-05-05T00:40:23.565Z,2535.00
2023-05-05T00:41:23.451Z,2533.00
2023-05-05T00:42:23.350Z,2520.00
2023-05-05T00:43:23.299Z,2527.00
2023-05-05T00:44:23.192Z,2518.00
2023-05-05T00:45:23.097Z,2526.00
2023-05-05T00:46:23.096Z,2525.00
2023-05-05T00:47:22.918Z,2518.00
2023-05-05T00:48:22.873Z,2517.00
2023-05-05T00:49:22.836Z,2506.00
2023-05-05T00:50:22.680Z,2511.00
2023-05-05T00:51:22.592Z,2516.00
2023-05-05T00:52:22.501Z,2508.00
2023-05-05T00:53:22.405Z,2514.00
2023-05-05T00:54:22.315Z,2499.00
2023-05-05T00:55:22.219Z,2504.00
2023-05-05T00:56:22.162Z,2497.00
2023-05-05T00:57:22.029Z,2491.00
2023-05-05T00:58:21.939Z,2497.00
2023-05-05T00:59:21.845Z,2495.00
2023-05-05T01:00:21.753Z,2491.00
2023-05-05T01:01:21.693Z,2501.00
2023-05-05T01:02:21.584Z,2495.00
2023-05-05T01:03:21.636Z,2496.00
2023-05-05T01:04:21.522Z,2493.00
2023-05-05T01:05:21.441Z,2490.00
2023-05-05T01:06:21.366Z,2480.00
2023-05-05T01:07:21.270Z,2493.00
2023-05-05T01:08:21.179Z,2481.00
2023-05-05T01:09:21.193Z,2484.00
2023-05-05T01:10:21.229Z,2488.00
2023-05-05T01:11:21.027Z,2473.00
2023-05-05T01:12:21.012Z,2470.00
2023-05-05T01:13:20.852Z,2469.00
2023-05-05T01:14:20.766Z,2474.00
2023-05-05T01:15:20.681Z,2466.00
2023-05-05T01:16:20.618Z,2460.00
2023-05-05T01:17:20.498Z,2460.00
2023-05-05T01:18:20.445Z,2471.00
2023-05-05T01:19:20.367Z,2466.00
2023-05-05T01:20:20.272Z,2463.00
2023-05-05T01:21:20.187Z,2450.00
2023-05-05T01:22:20.091Z,2467.00
2023-05-05T01:23:20.005Z,2450.00
2023-05-05T01:24:19.920Z,2447.00
2023-05-05T01:25:19.821Z,2447.00
2023-05-05T01:26:19.729Z,2438.00
2023-05-05T01:27:19.652Z,2446.00
2023-05-05T01:28:19.574Z,2446.00
2023-05-05T01:29:19.477Z,2441.00
2023-05-05T01:30:19.390Z,2444.00
2023-05-05T01:31:19.340Z,2433.00
2023-05-05T01:32:19.235Z,2429.00
2023-05-05T01:33:19.117Z,2435.00
2023-05-05T01:34:19.019Z,2430.00
2023-05-05T01:35:18.925Z,2438.00
2023-05-05T01:36:18.824Z,2428.00
2023-05-05T01:37:18.742Z,2431.00
2023-05-05T01:38:18.642Z,2432.00
2023-05-05T01:39:18.543Z,2430.00
2023-05-05T01:40:18.442Z,2428.00
2023-05-05T01:41:18.354Z,2422.00
2023-05-05T01:42:18.273Z,2425.00
2023-05-05T01:43:18.187Z,2421.00
2023-05-05T01:44:18.083Z,2421.00
2023-05-05T01:45:18.000Z,2424.00
2023-05-05T01:46:18.041Z,2433.00
2023-05-05T01:47:17.831Z,2424.00
2023-05-05T01:48:17.731Z,2422.00
2023-05-05T01:49:17.691Z,2422.00
2023-05-05T01:50:17.563Z,2420.00
2023-05-05T01:51:17.482Z,2418.00
2023-05-05T01:52:17.384Z,2421.00
2023-05-05T01:53:17.299Z,2410.00
2023-05-05T01:54:17.215Z,2406.00
2023-05-05T01:55:17.117Z,2408.00
2023-05-05T01:56:17.056Z,2396.00
2023-05-05T01:57:16.958Z,2397.00
2023-05-05T01:58:16.875Z,2408.00
2023-05-05T01:59:16.789Z,2400.00
2023-05-05T02:00:16.720Z,2405.00
2023-05-05T02:01:16.633Z,2389.00
2023-05-05T02:02:16.554Z,2388.00
2023-05-05T02:03:16.557Z,2397.00
2023-05-05T02:04:16.388Z,2386.00
2023-05-05T02:05:16.290Z,2387.00
2023-05-05T02:06:16.220Z,2382.00
2023-05-05T02:07:16.158Z,2391.00
2023-05-05T02:08:16.068Z,2389.00
2023-05-05T02:09:15.969Z,2384.00
2023-05-05T02:10:15.874Z,2381.00
2023-05-05T02:11:15.801Z,2369.00
2023-05-05T02:12:15.706Z,2380.00
2023-05-05T02:13:15.733Z,2371.00
2023-05-05T02:14:15.524Z,2373.00
2023-05-05T02:15:15.480Z,2371.00
2023-05-05T02:16:15.469Z,2366.00
2023-05-05T02:17:15.284Z,2372.00
2023-05-05T02:18:15.207Z,2374.00
2023-05-05T02:19:15.182Z,2363.00
2023-05-05T02:20:15.028Z,2373.00
2023-05-05T02:21:14.940Z,2371.00
2023-05-05T02:22:14.884Z,2350.00
2023-05-05T02:23:14.783Z,2353.00
2023-05-05T02:24:14.678Z,2358.00
2023-05-05T02:25:14.588Z,2363.00
2023-05-05T02:26:14.496Z,2339.00
2023-05-05T02:27:14.406Z,2345.00
2023-05-05T02:28:14.382Z,2344.00
2023-05-05T02:29:14.260Z,2348.00
2023-05-05T02:30:14.162Z,2345.00
2023-05-05T02:31:14.108Z,2346.00
2023-05-05T02:32:13.995Z,2352.00
2023-05-05T02:33:13.926Z,2348.00
2023-05-05T02:34:13.819Z,2343.00
2023-05-05T02:35:13.724Z,2337.00
2023-05-05T02:36:13.631Z,2336.00
2023-05-05T02:37:13.611Z,2332.00
2023-05-05T02:38:13.521Z,2329.00
2023-05-05T02:39:13.433Z,2327.00
2023-05-05T02:40:13.333Z,2321.00
2023-05-05T02:41:13.309Z,2326.00
2023-05-05T02:42:13.205Z,2327.00
2023-05-05T02:43:13.135Z,2328.00
2023-05-05T02:44:13.026Z,2328.00
2023-05-05T02:45:12.957Z,2327.00
2023-05-05T02:46:12.838Z,2326.00
2023-05-05T02:47:12.762Z,2321.00
2023-05-05T02:48:12.675Z,2306.00
2023-05-05T02:49:12.572Z,2308.00
2023-05-05T02:50:12.481Z,2310.00
2023-05-05T02:51:12.390Z,2305.00
2023-05-05T02:52:12.300Z,2315.00
2023-05-05T02:53:12.211Z,2311.00
2023-05-05T02:54:12.125Z,2308.00
2023-05-05T02:55:12.030Z,2299.00
2023-05-05T02:56:11.943Z,2314.00
2023-05-05T02:57:11.839Z,2306.00
2023-05-05T02:58:11.757Z,2298.00
2023-05-05T02:59:12.478Z,2310.00
2023-05-05T03:00:11.554Z,2317.00
2023-05-05T03:01:11.514Z,2302.00
2023-05-05T03:02:11.356Z,2290.00
2023-05-05T03:03:11.362Z,2288.00
2023-05-05T03:04:11.157Z,2298.00
2023-05-05T03:05:11.074Z,2280.00
2023-05-05T03:06:10.981Z,2276.00
2023-05-05T03:07:10.877Z,2280.00
2023-05-05T03:08:10.807Z,2278.00
2023-05-05T03:09:10.681Z,2287.00
2023-05-05T03:10:10.744Z,2292.00
2023-05-05T03:11:10.500Z,2287.00
2023-05-05T03:12:10.436Z,2274.00
2023-05-05T03:13:10.394Z,2284.00
2023-05-05T03:14:10.257Z,2270.00
2023-05-05T03:15:10.167Z,2273.00
2023-05-05T03:16:10.085Z,2267.00
2023-05-05T03:17:09.968Z,2274.00
2023-05-05T03:18:09.891Z,2276.00
2023-05-05T03:19:09.878Z,2267.00
2023-05-05T03:20:09.820Z,2264.00
2023-05-05T03:21:09.619Z,2257.00
2023-05-05T03:22:09.527Z,2263.00
2023-05-05T03:23:09.442Z,2252.00
2023-05-05T03:24:09.354Z,2261.00
2023-05-05T03:25:09.254Z,2244.00
2023-05-05T03:26:09.181Z,2261.00
2023-05-05T03:27:09.078Z,2260.00
2023-05-05T03:28:09.008Z,2253.00
2023-05-05T03:29:08.917Z,2262.00
2023-05-05T03:30:08.987Z,2258.00
2023-05-05T03:31:08.701Z,2249.00
2023-05-05T03:32:08.639Z,2256.00
2023-05-05T03:33:08.536Z,2242.00
2023-05-05T03:34:08.411Z,2242.00
2023-05-05T03:35:08.316Z,2228.00
2023-05-05T03:36:08.216Z,2234.00
2023-05-05T03:37:08.121Z,2225.00
2023-05-05T03:38:08.029Z,2226.00
2023-05-05T03:39:07.928Z,2222.00
2023-05-05T03:40:08.045Z,2217.00
2023-05-05T03:41:07.744Z,2218.00
2023-05-05T03:42:07.646Z,2217.00
2023-05-05T03:43:07.556Z,2216.00
2023-05-05T03:44:07.463Z,2218.00
2023-05-05T03:45:07.369Z,2223.00
2023-05-05T03:46:07.305Z,2219.00
2023-05-05T03:47:07.196Z,2212.00
2023-05-05T03:48:07.194Z,2215.00
2023-05-05T03:49:07.016Z,2215.00
2023-05-05T03:50:07.109Z,2206.00
2023-05-05T03:51:06.870Z,2216.00
2023-05-05T03:52:06.726Z,2210.00
2023-05-05T03:53:06.653Z,2200.00
2023-05-05T03:54:06.536Z,2205.00
2023-05-05T03:55:06.495Z,2202.00
2023-05-05T03:56:06.383Z,2197.00
2023-05-05T03:57:06.293Z,2200.00
2023-05-05T03:58:06.208Z,2190.00
2023-05-05T03:59:06.110Z,2209.00
2023-05-05T04:00:06.154Z,2189.00
2023-05-05T04:01:05.920Z,2197.00
2023-05-05T04:02:05.892Z,2184.00
2023-05-05T04:03:05.916Z,2194.00
2023-05-05T04:04:05.679Z,2185.00
2023-05-05T04:05:05.601Z,2187.00
2023-05-05T04:06:05.514Z,2180.00
2023-05-05T04:07:05.397Z,2183.00
2023-05-05T04:08:05.368Z,2182.00
2023-05-05T04:09:05.225Z,2172.00
2023-05-05T04:10:05.193Z,2172.00
2023-05-05T04:11:05.029Z,2166.00
2023-05-05T04:12:04.959Z,2159.00
2023-05-05T04:13:04.907Z,2174.00
2023-05-05T04:14:04.763Z,2170.00
2023-05-05T04:15:04.690Z,2170.00
2023-05-05T04:16:04.589Z,2167.00
2023-05-05T04:17:04.477Z,2162.00
2023-05-05T04:18:04.446Z,2158.00
2023-05-05T04:19:04.305Z,2174.00
2023-05-05T04:20:04.204Z,2157.00
2023-05-05T04:21:04.116Z,2155.00
2023-05-05T04:22:04.017Z,2152.00
2023-05-05T04:23:03.948Z,2156.00
2023-05-05T04:24:03.836Z,2146.00
2023-05-05T04:25:03.755Z,2146.00
2023-05-05T04:26:03.653Z,2148.00
2023-05-05T04:27:03.556Z,2148.00
2023-05-05T04:28:03.500Z,2150.00
2023-05-05T04:29:03.375Z,2140.00
2023-05-05T04:30:03.292Z,2142.00
2023-05-05T04:31:03.297Z,2133.00
2023-05-05T04:32:03.125Z,2130.00
2023-05-05T04:33:03.149Z,2123.00
2023-05-05T04:34:02.977Z,2131.00
2023-05-05T04:35:02.874Z,2131.00
2023-05-05T04:36:02.775Z,2135.00
2023-05-05T04:37:02.680Z,2134.00
2023-05-05T04:38:02.600Z,2127.00
2023-05-05T04:39:02.527Z,2131.00
2023-05-05T04:40:02.401Z,2133.00
2023-05-05T04:41:02.321Z,2126.00
2023-05-05T04:42:02.225Z,2117.00
2023-05-05T04:43:02.131Z,2114.00
2023-05-05T04:44:02.023Z,2119.00
2023-05-05T04:45:01.953Z,2111.00
2023-05-05T04:46:01.847Z,2101.00
2023-05-05T04:47:01.754Z,2107.00
2023-05-05T04:48:01.709Z,2115.00
2023-05-05T04:49:01.551Z,2117.00
2023-05-05T04:50:01.453Z,2117.00
2023-05-05T04:51:01.361Z,2111.00
2023-05-05T04:52:01.271Z,2106.00
2023-05-05T04:53:01.170Z,2099.00
2023-05-05T04:54:01.113Z,2116.00
2023-05-05T04:55:00.979Z,2101.00
2023-05-05T04:56:00.899Z,2104.00
2023-05-05T04:57:00.800Z,2094.00
2023-05-05T04:58:00.704Z,2098.00
2023-05-05T04:59:00.614Z,2091.00
2023-05-05T05:00:00.520Z,2100.00
2023-05-05T05:01:00.435Z,2093.00
2023-05-05T05:02:00.391Z,2080.00
2023-05-05T05:03:00.345Z,2082.00
2023-05-05T05:04:00.460Z,2084.00
2023-05-05T05:05:00.081Z,2081.00
2023-05-05T05:05:59.968Z,2076.00
2023-05-05T05:06:59.866Z,2076.00
2023-05-05T05:07:59.771Z,2077.00
2023-05-05T05:08:59.676Z,2078.00
2023-05-05T05:09:59.575Z,2076.00
2023-05-05T05:10:59.487Z,2057.00
2023-05-05T05:11:59.389Z,2075.00
2023-05-05T05:12:59.303Z,2055.00
2023-05-05T05:13:59.202Z,2059.00
2023-05-05T05:14:59.130Z,2047.00
2023-05-05T05:15:59.083Z,2048.00
2023-05-05T05:16:58.940Z,2059.00
2023-05-05T05:17:58.925Z,2058.00
2023-05-05T05:19:01.397Z,2050.00
2023-05-05T05:19:58.636Z,2056.00
2023-05-05T05:20:58.522Z,2064.00
2023-05-05T05:21:58.435Z,2059.00
2023-05-05T05:22:58.306Z,2002.00
2023-05-05T05:23:58.698Z,1816.00
2023-05-05T05:24:58.087Z,1717.00
2023-05-05T05:25:57.995Z,1664.00
2023-05-05T05:26:57.876Z,1562.00
2023-05-05T05:28:08.823Z,1407.00
2023-05-05T05:28:58.672Z,1372.00
2023-05-05T05:29:57.565Z,1310.00
2023-05-05T05:30:57.487Z,1113.00
2023-05-05T05:31:57.401Z,1083.00
2023-05-05T05:32:57.327Z,1088.00
2023-05-05T05:33:57.232Z,1157.00
2023-05-05T05:34:57.713Z,1244.00
2023-05-05T05:35:56.982Z,1293.00
2023-05-05T05:36:56.853Z,1365.00
2023-05-05T05:37:56.756Z,1396.00
2023-05-05T05:38:56.642Z,1383.00
2023-05-05T05:39:56.530Z,1455.00
2023-05-05T05:40:56.421Z,1490.00
2023-05-05T05:41:56.363Z,1534.00
2023-05-05T05:42:56.216Z,1538.00
2023-05-05T05:43:56.102Z,1567.00
2023-05-05T05:44:56.003Z,1582.00
2023-05-05T05:45:55.916Z,1629.00
2023-05-05T05:46:55.808Z,1630.00
2023-05-05T05:47:55.757Z,1653.00
2023-05-05T05:48:55.796Z,1672.00
2023-05-05T05:49:55.635Z,1680.00
2023-05-05T05:50:55.566Z,1686.00
2023-05-05T05:51:55.350Z,1691.00
2023-05-05T05:52:55.253Z,1726.00
2023-05-05T05:53:56.900Z,1753.00
2023-05-05T05:54:55.062Z,1805.00
2023-05-05T05:55:54.944Z,1785.00
2023-05-05T05:56:54.834Z,1397.00
2023-05-05T05:57:54.735Z,1112.00
2023-05-05T05:58:54.611Z,834.00
2023-05-05T05:59:54.507Z,647.00
2023-05-05T06:00:54.412Z,579.00
2023-05-05T06:01:54.290Z,516.00
2023-05-05T06:02:54.311Z,500.00
2023-05-05T06:03:54.144Z,507.00
2023-05-05T06:04:53.983Z,506.00
2023-05-05T06:05:53.853Z,516.00
2023-05-05T06:06:53.740Z,522.00
2023-05-05T06:07:53.628Z,580.00
2023-05-05T06:08:53.522Z,634.00
2023-05-05T06:09:53.408Z,660.00
2023-05-05T06:10:53.311Z,723.00
2023-05-05T06:11:53.189Z,769.00
2023-05-05T06:12:53.112Z,837.00
2023-05-05T06:13:52.981Z,914.00
2023-05-05T06:14:52.866Z,958.00
2023-05-05T06:15:52.782Z,1006.00
2023-05-05T06:16:52.646Z,1027.00
2023-05-05T06:17:52.575Z,1063.00
2023-05-05T06:18:52.414Z,1082.00
2023-05-05T06:19:54.071Z,1122.00
2023-05-05T06:20:52.166Z,1160.00
2023-05-05T06:21:52.052Z,1141.00
2023-05-05T06:22:51.940Z,943.00
2023-05-05T06:23:51.830Z,756.00
2023-05-05T06:24:51.751Z,671.00
2023-05-05T06:25:51.696Z,616.00
2023-05-05T06:26:51.634Z,627.00
2023-05-05T06:27:51.577Z,630.00
2023-05-05T06:28:51.534Z,652.00
2023-05-05T06:29:51.469Z,658.00
2023-05-05T06:30:51.389Z,680.00
2023-05-05T06:31:51.345Z,701.00
2023-05-05T06:32:51.300Z,678.00
2023-05-05T06:33:51.185Z,677.00
2023-05-05T06:34:51.229Z,730.00
2023-05-05T06:35:51.098Z,710.00
2023-05-05T06:36:50.988Z,665.00
2023-05-05T06:37:50.879Z,694.00
2023-05-05T06:38:50.799Z,751.00
2023-05-05T06:39:50.723Z,782.00
2023-05-05T06:40:50.628Z,811.00
2023-05-05T06:41:50.536Z,840.00
2023-05-05T06:42:50.455Z,916.00
2023-05-05T06:43:50.369Z,940.00
2023-05-05T06:44:50.316Z,977.00
2023-05-05T06:45:50.188Z,1022.00
2023-05-05T06:46:50.152Z,1062.00
2023-05-05T06:47:50.017Z,1089.00
2023-05-05T06:48:49.904Z,1100.00
2023-05-05T06:49:49.806Z,1129.00
2023-05-05T06:50:49.694Z,1160.00
2023-05-05T06:51:49.593Z,1214.00
2023-05-05T06:52:49.550Z,1264.00
2023-05-05T06:53:49.450Z,1315.00
2023-05-05T06:54:49.294Z,1343.00
2023-05-05T06:55:49.186Z,1374.00
2023-05-05T06:56:49.089Z,1409.00
2023-05-05T06:57:48.978Z,1435.00
2023-05-05T06:58:48.873Z,1472.00
2023-05-05T06:59:48.774Z,1490.00
2023-05-05T07:00:48.717Z,1542.00
2023-05-05T07:01:48.572Z,1572.00
2023-05-05T07:02:48.497Z,1599.00
2023-05-05T07:03:48.385Z,1632.00
2023-05-05T07:04:48.274Z,1651.00
2023-05-05T07:05:48.147Z,1668.00
2023-05-05T07:06:48.042Z,1694.00
2023-05-05T07:07:47.935Z,1724.00
2023-05-05T07:08:47.814Z,1748.00
2023-05-05T07:09:47.897Z,1757.00
2023-05-05T07:10:47.616Z,1804.00
2023-05-05T07:11:47.534Z,1830.00
2023-05-05T07:12:47.453Z,1841.00
2023-05-05T07:13:47.355Z,1865.00
2023-05-05T07:14:47.292Z,1896.00
2023-05-05T07:15:47.157Z,1904.00
2023-05-05T07:16:47.110Z,1911.00
2023-05-05T07:17:47.036Z,1912.00
2023-05-05T07:18:46.924Z,2017.00
2023-05-05T07:19:46.865Z,2027.00
2023-05-05T07:20:46.759Z,2034.00
2023-05-05T07:21:46.677Z,2050.00
2023-05-05T07:22:46.603Z,1964.00
2023-05-05T07:23:46.679Z,1935.00
2023-05-05T07:24:46.477Z,1900.00
2023-05-05T07:25:46.537Z,1924.00
2023-05-05T07:26:46.340Z,1927.00
2023-05-05T07:27:46.277Z,1971.00
2023-05-05T07:28:46.258Z,1999.00
2023-05-05T07:29:46.670Z,1990.00
2023-05-05T07:30:46.145Z,2016.00
2023-05-05T07:31:46.735Z,2047.00
2023-05-05T07:32:46.313Z,2079.00
2023-05-05T07:33:45.965Z,2103.00
2023-05-05T07:34:45.903Z,2131.00
2023-05-05T07:35:45.824Z,2154.00
2023-05-05T07:36:45.771Z,2186.00
2023-05-05T07:37:45.719Z,2196.00
2023-05-05T07:38:45.643Z,2215.00
2023-05-05T07:39:45.581Z,2230.00
2023-05-05T07:40:45.518Z,2222.00
2023-05-05T07:41:46.310Z,2256.00
2023-05-05T07:42:45.380Z,2241.00
2023-05-05T07:43:45.344Z,2301.00
2023-05-05T07:44:45.264Z,2312.00
2023-05-05T07:45:46.189Z,2323.00
2023-05-05T07:46:45.147Z,2323.00
2023-05-05T07:47:45.120Z,2319.00
2023-05-05T07:48:45.040Z,2341.00
2023-05-05T07:49:44.981Z,2358.00
2023-05-05T07:50:44.922Z,2347.00
2023-05-05T07:51:44.849Z,2374.00
2023-05-05T07:52:48.238Z,2550.00
2023-05-05T07:53:45.674Z,2552.00
2023-05-05T07:54:44.536Z,2557.00
2023-05-05T07:55:44.407Z,2576.00
2023-05-05T07:56:44.291Z,2604.00
2023-05-05T07:57:44.291Z,2632.00
2023-05-05T07:58:44.055Z,2612.00
2023-05-05T07:59:43.945Z,2652.00
2023-05-05T08:00:43.813Z,2643.00
2023-05-05T08:01:43.689Z,2665.00
2023-05-05T08:02:43.646Z,2672.00
2023-05-05T08:03:43.618Z,2684.00
2023-05-05T08:04:43.444Z,2713.00
2023-05-05T08:05:43.392Z,2759.00
2023-05-05T08:06:43.308Z,2855.00
2023-05-05T08:07:43.278Z,2855.00
2023-05-05T08:08:43.151Z,2852.00
2023-05-05T08:09:43.091Z,2852.00
2023-05-05T08:10:43.687Z,2871.00
2023-05-05T08:11:43.768Z,2870.00
2023-05-05T08:12:42.880Z,2866.00
2023-05-05T08:13:42.853Z,2870.00
2023-05-05T08:14:42.742Z,2840.00
2023-05-05T08:15:42.700Z,2835.00
2023-05-05T08:16:42.606Z,2839.00
2023-05-05T08:17:42.589Z,2808.00
2023-05-05T08:18:42.440Z,2771.00
2023-05-05T08:19:42.361Z,2722.00
2023-05-05T08:20:42.285Z,2674.00
2023-05-05T08:21:42.224Z,2602.00
2023-05-05T08:22:42.154Z,2506.00
2023-05-05T08:23:42.094Z,2474.00
2023-05-05T08:24:42.036Z,2458.00
2023-05-05T08:25:41.957Z,2369.00
2023-05-05T08:26:41.883Z,2337.00
2023-05-05T08:27:41.818Z,2367.00
2023-05-05T08:28:41.732Z,2382.00
2023-05-05T08:29:41.717Z,2389.00
2023-05-05T08:30:41.572Z,2387.00
2023-05-05T08:31:41.619Z,2439.00
2023-05-05T08:32:41.514Z,2503.00
2023-05-05T08:33:42.198Z,2546.00
2023-05-05T08:34:41.252Z,2541.00
2023-05-05T08:35:41.163Z,2562.00
2023-05-05T08:36:41.075Z,2596.00
2023-05-05T08:37:40.983Z,2625.00
2023-05-05T08:38:40.896Z,2662.00
2023-05-05T08:39:40.801Z,2672.00
2023-05-05T08:40:40.741Z,2699.00
2023-05-05T08:41:40.634Z,2738.00
2023-05-05T08:42:40.528Z,2746.00
2023-05-05T08:43:41.203Z,2768.00
2023-05-05T08:44:40.343Z,2793.00
2023-05-05T08:45:40.331Z,2832.00
2023-05-05T08:46:40.185Z,2819.00
2023-05-05T08:47:40.152Z,2832.00
2023-05-05T08:48:39.918Z,2853.00
2023-05-05T08:49:39.813Z,2890.00
2023-05-05T08:50:39.715Z,2894.00
2023-05-05T08:51:39.613Z,2920.00
2023-05-05T08:52:39.593Z,2948.00
2023-05-05T08:53:39.424Z,2981.00
2023-05-05T08:54:39.303Z,3003.00
2023-05-05T08:55:39.201Z,3008.00
2023-05-05T08:56:39.106Z,3043.00
2023-05-05T08:57:39.761Z,3067.00
2023-05-05T08:58:38.919Z,3081.00
2023-05-05T08:59:38.801Z,3092.00
2023-05-05T09:00:38.728Z,3112.00
2023-05-05T09:01:38.628Z,3110.00
2023-05-05T09:02:38.588Z,3121.00
2023-05-05T09:03:38.454Z,3129.00
2023-05-05T09:04:38.279Z,3147.00
2023-05-05T09:05:38.165Z,3166.00
2023-05-05T09:06:38.069Z,3185.00
2023-05-05T09:07:37.953Z,3195.00
2023-05-05T09:08:37.845Z,3214.00
2023-05-05T09:09:37.741Z,3221.00
2023-05-05T09:10:37.628Z,3235.00
2023-05-05T09:11:37.516Z,3246.00
2023-05-05T09:12:37.425Z,3259.00
2023-05-05T09:13:37.383Z,3250.00
2023-05-05T09:14:37.184Z,3261.00
2023-05-05T09:15:37.093Z,3295.00
2023-05-05T09:16:37.009Z,3292.00
2023-05-05T09:17:36.955Z,3291.00
2023-05-05T09:18:36.748Z,3294.00
2023-05-05T09:19:36.621Z,3268.00
2023-05-05T09:20:36.528Z,3237.00
2023-05-05T09:21:36.425Z,3211.00
2023-05-05T09:22:36.324Z,3183.00
2023-05-05T09:23:36.219Z,3169.00
2023-05-05T09:24:36.109Z,3135.00
2023-05-05T09:25:36.012Z,3113.00
2023-05-05T09:26:35.916Z,3091.00
2023-05-05T09:27:35.827Z,3097.00
2023-05-05T09:28:37.225Z,3067.00
2023-05-05T09:29:35.644Z,3072.00
2023-05-05T09:30:35.551Z,3060.00
2023-05-05T09:31:35.474Z,3065.00
2023-05-05T09:32:35.380Z,3054.00
2023-05-05T09:33:35.376Z,3035.00
2023-05-05T09:34:35.231Z,3037.00
2023-05-05T09:35:35.139Z,3059.00
2023-05-05T09:36:35.077Z,3031.00
2023-05-05T09:37:35.013Z,3021.00
2023-05-05T09:38:34.981Z,3047.00
2023-05-05T09:39:34.907Z,3018.00
2023-05-05T09:40:34.802Z,3020.00
2023-05-05T09:41:34.717Z,3020.00
2023-05-05T09:42:34.643Z,3006.00
2023-05-05T09:43:34.600Z,3031.00
2023-05-05T09:44:34.541Z,3011.00
2023-05-05T09:45:34.480Z,3014.00
2023-05-05T09:46:34.506Z,2999.00
2023-05-05T09:47:35.513Z,2993.00
2023-05-05T09:48:37.780Z,3000.00
2023-05-05T09:49:34.218Z,3009.00
2023-05-05T09:50:34.056Z,2997.00
2023-05-05T09:51:33.904Z,2999.00
2023-05-05T09:52:33.773Z,2984.00
2023-05-05T09:53:33.661Z,2984.00
2023-05-05T09:54:33.527Z,2973.00
2023-05-05T09:55:33.549Z,2970.00
2023-05-05T09:56:33.251Z,2952.00
2023-05-05T09:57:33.130Z,2963.00
2023-05-05T09:58:33.919Z,2964.00
2023-05-05T09:59:35.083Z,2955.00
2023-05-05T10:00:32.788Z,2973.00
2023-05-05T10:01:32.677Z,2969.00
2023-05-05T10:02:32.626Z,2961.00
2023-05-05T10:03:32.372Z,2937.00
2023-05-05T10:04:32.858Z,2940.00
2023-05-05T10:05:32.211Z,2939.00
2023-05-05T10:06:32.056Z,2936.00
2023-05-05T10:07:31.977Z,2934.00
2023-05-05T10:08:31.917Z,2944.00
2023-05-05T10:09:31.826Z,2921.00
2023-05-05T10:10:31.958Z,2926.00
2023-05-05T10:11:31.627Z,2921.00
2023-05-05T10:12:31.547Z,2912.00
2023-05-05T10:13:31.431Z,2917.00
2023-05-05T10:14:31.290Z,2938.00
2023-05-05T10:15:31.176Z,2965.00
2023-05-05T10:16:31.186Z,2890.00
2023-05-05T10:17:31.011Z,2798.00
2023-05-05T10:18:30.941Z,2580.00
2023-05-05T10:19:30.775Z,2008.00
2023-05-05T10:20:30.689Z,1346.00
2023-05-05T10:21:30.702Z,892.00
2023-05-05T10:22:30.556Z,631.00
2023-05-05T10:23:30.487Z,520.00
2023-05-05T10:24:30.432Z,478.00
2023-05-05T10:25:30.354Z,400.00
2023-05-05T10:26:30.287Z,436.00
2023-05-05T10:27:30.216Z,477.00
2023-05-05T10:28:30.132Z,489.00
2023-05-05T10:29:30.039Z,472.00
2023-05-05T10:30:29.957Z,467.00
2023-05-05T10:31:29.921Z,454.00
2023-05-05T10:32:53.197Z,432.00
2023-05-05T10:33:32.235Z,400.00
2023-05-05T10:34:29.694Z,400.00
2023-05-05T10:35:29.371Z,400.00
2023-05-05T10:36:29.264Z,400.00
2023-05-05T10:37:29.230Z,400.00
2023-05-05T10:38:29.846Z,400.00
2023-05-05T10:39:28.875Z,411.00
2023-05-05T10:40:28.737Z,441.00
2023-05-05T10:41:28.606Z,571.00
2023-05-05T10:42:28.491Z,621.00
2023-05-05T10:43:28.347Z,617.00
2023-05-05T10:44:28.208Z,508.00
2023-05-05T10:45:28.119Z,505.00
2023-05-05T10:46:28.874Z,498.00
2023-05-05T10:47:27.999Z,484.00
2023-05-05T10:48:27.714Z,492.00
2023-05-05T10:49:27.551Z,503.00
2023-05-05T10:50:27.422Z,506.00
2023-05-05T10:51:38.525Z,583.00
2023-05-05T10:52:28.156Z,534.00
2023-05-05T10:53:27.114Z,500.00
2023-05-05T10:54:27.821Z,487.00
2023-05-05T10:55:26.740Z,519.00
2023-05-05T10:56:26.623Z,551.00
2023-05-05T10:57:26.478Z,544.00
2023-05-05T10:58:26.341Z,598.00
2023-05-05T10:59:26.208Z,599.00
2023-05-05T11:00:26.061Z,568.00
2023-05-05T11:01:25.966Z,602.00
2023-05-05T11:02:25.885Z,577.00
2023-05-05T11:03:25.740Z,586.00
2023-05-05T11:04:26.540Z,588.00
2023-05-05T11:05:25.409Z,602.00
2023-05-05T11:06:25.269Z,640.00
2023-05-05T11:07:25.132Z,765.00
2023-05-05T11:08:25.003Z,964.00
2023-05-05T11:09:24.881Z,1072.00
2023-05-05T11:10:24.758Z,1174.00
2023-05-05T11:11:24.624Z,1278.00
2023-05-05T11:12:24.506Z,1356.00
2023-05-05T11:13:24.485Z,1432.00
2023-05-05T11:14:24.261Z,1492.00
2023-05-05T11:15:24.166Z,1572.00
2023-05-05T11:16:24.032Z,1638.00
2023-05-05T11:17:23.914Z,1683.00
2023-05-05T11:18:23.741Z,1715.00
2023-05-05T11:19:23.615Z,1743.00
2023-05-05T11:20:23.480Z,1792.00
2023-05-05T11:21:23.361Z,1843.00
2023-05-05T11:22:23.229Z,1894.00
2023-05-05T11:23:23.113Z,1957.00
2023-05-05T11:24:22.983Z,1963.00
2023-05-05T11:25:22.956Z,2012.00
2023-05-05T11:26:22.809Z,2002.00
2023-05-05T11:27:22.734Z,2034.00
2023-05-05T11:28:22.653Z,2106.00
2023-05-05T11:29:22.571Z,2142.00
2023-05-05T11:30:22.494Z,2185.00
2023-05-05T11:31:22.448Z,2219.00
2023-05-05T11:32:22.385Z,2222.00
2023-05-05T11:33:22.275Z,2240.00
2023-05-05T11:34:22.193Z,2274.00
2023-05-05T11:35:22.123Z,2274.00
2023-05-05T11:36:22.048Z,2323.00
2023-05-05T11:37:21.976Z,2390.00
2023-05-05T11:38:21.900Z,2407.00
2023-05-05T11:39:21.825Z,2464.00
2023-05-05T11:40:21.817Z,2508.00
2023-05-05T11:41:21.802Z,2515.00
2023-05-05T11:42:21.610Z,2520.00
2023-05-05T11:43:21.545Z,2573.00
2023-05-05T11:44:21.489Z,2607.00
2023-05-05T11:45:21.425Z,2674.00
2023-05-05T11:46:21.384Z,2696.00
2023-05-05T11:47:21.328Z,2723.00
2023-05-05T11:48:21.270Z,2699.00
2023-05-05T11:49:21.193Z,2717.00
2023-05-05T11:50:21.077Z,2741.00
2023-05-05T11:51:21.871Z,2747.00
2023-05-05T11:52:20.941Z,2744.00
2023-05-05T11:53:20.942Z,2782.00
2023-05-05T11:54:20.808Z,2789.00
2023-05-05T11:55:20.750Z,2817.00
2023-05-05T11:56:20.703Z,2847.00
2023-05-05T11:57:20.680Z,2859.00
2023-05-05T11:58:20.642Z,2872.00
2023-05-05T11:59:20.498Z,2877.00
2023-05-05T12:00:20.440Z,2901.00
2023-05-05T12:01:20.382Z,2903.00
2023-05-05T12:02:20.397Z,2925.00
2023-05-05T12:03:20.413Z,2935.00
2023-05-05T12:04:20.235Z,2967.00
2023-05-05T12:05:20.188Z,2964.00
2023-05-05T12:06:20.118Z,2982.00
2023-05-05T12:07:20.092Z,2994.00